Time;durP1;ratioP1;P1;durP2;ratioP2;P2;SDS_P1;SDS_P2;PMS_P1;PMS_P2;Temp;Humidity;BMP_temperature;BMP_pressure;BME280_temperature;BME280_humidity;BME280_pressure;Samples;Min_cycle;Max_cycle;Signal;HPM_P1;HPM_P2
2021/11/08 00:00:12;;;;;;;21.70;19.80;;;;;;;6.69;100.00;98850.38;2088627;28;20226;-73
2021/11/08 00:01:15;;;;;;;21.90;19.75;;;;;;;6.68;100.00;98846.94;2089751;28;20295;-73
2021/11/08 00:02:18;;;;;;;21.75;19.85;;;;;;;6.72;100.00;98860.44;2089834;28;20229;-73
2021/11/08 00:03:24;;;;;;;21.45;19.58;;;;;;;6.69;100.00;98853.84;2089705;28;20227;-73
2021/11/08 00:04:24;;;;;;;23.30;21.20;;;;;;;6.70;100.00;98850.13;2089195;28;20231;-73
2021/11/08 00:05:26;;;;;;;22.17;20.07;;;;;;;6.69;100.00;98851.19;2089592;28;20231;-73
2021/11/08 00:06:28;;;;;;;21.77;19.77;;;;;;;6.72;100.00;98853.28;2089561;28;20233;-73
2021/11/08 00:07:30;;;;;;;22.58;20.45;;;;;;;6.72;100.00;98853.28;2089627;28;20226;-73
2021/11/08 00:08:31;;;;;;;23.65;21.65;;;;;;;6.76;100.00;98850.84;2088814;28;20337;-73
2021/11/08 00:09:33;;;;;;;22.67;20.30;;;;;;;6.72;100.00;98847.97;2088993;28;20340;-73
2021/11/08 00:10:36;;;;;;;22.83;20.73;;;;;;;6.70;100.00;98857.28;2088910;28;20218;-73
2021/11/08 00:11:39;;;;;;;22.55;20.33;;;;;;;6.68;100.00;98843.47;2088985;28;20226;-73
2021/11/08 00:12:41;;;;;;;21.55;19.67;;;;;;;6.75;100.00;98851.94;2089226;28;20721;-73
2021/11/08 00:13:45;;;;;;;22.77;20.55;;;;;;;6.71;100.00;98854.34;2088967;28;20681;-73
2021/11/08 00:14:47;;;;;;;22.50;20.35;;;;;;;6.70;100.00;98850.13;2088970;28;20568;-73
2021/11/08 00:16:00;;;;;;;22.65;20.45;;;;;;;6.71;100.00;98849.03;2089191;28;20219;-73
2021/11/08 00:17:08;;;;;;;23.13;20.80;;;;;;;6.72;100.00;98849.84;2088533;28;20269;-73
2021/11/08 00:18:13;;;;;;;22.65;20.38;;;;;;;6.68;100.00;98849.56;2088696;28;20226;-73
2021/11/08 00:19:33;;;;;;;21.98;20.02;;;;;;;6.67;100.00;98855.16;2088780;28;20222;-73
2021/11/08 00:20:42;;;;;;;22.15;20.25;;;;;;;6.66;100.00;98862.31;2088876;28;20246;-73
2021/11/08 00:21:46;;;;;;;22.02;20.13;;;;;;;6.65;100.00;98863.38;2088370;28;20658;-72
2021/11/08 00:22:47;;;;;;;22.85;20.85;;;;;;;6.66;100.00;98872.94;2088948;28;20720;-73
2021/11/08 00:23:50;;;;;;;22.20;20.10;;;;;;;6.72;100.00;98866.53;2088656;28;20624;-73
2021/11/08 00:24:52;;;;;;;22.90;20.80;;;;;;;6.68;100.00;98862.84;2080795;28;20630;-73
2021/11/08 00:25:53;;;;;;;23.10;21.02;;;;;;;6.70;100.00;98863.38;2088433;28;20662;-73
2021/11/08 00:26:55;;;;;;;23.75;21.60;;;;;;;6.67;100.00;98871.06;2089453;28;20233;-73
2021/11/08 00:27:58;;;;;;;24.88;22.30;;;;;;;6.68;100.00;98872.66;2089506;28;20230;-73
2021/11/08 00:28:58;;;;;;;24.88;22.52;;;;;;;6.72;100.00;98876.34;2088461;28;20597;-73
2021/11/08 00:30:00;;;;;;;23.03;20.90;;;;;;;6.68;100.00;98868.13;2088756;28;20229;-73
2021/11/08 00:31:03;;;;;;;24.73;22.42;;;;;;;6.71;100.00;98870.25;2089550;28;20249;-73
2021/11/08 00:32:06;;;;;;;23.00;20.83;;;;;;;6.69;100.00;98872.41;2088730;28;20230;-73
2021/11/08 00:33:10;;;;;;;22.63;20.73;;;;;;;6.64;100.00;98872.41;2088496;28;20227;-73
2021/11/08 00:34:12;;;;;;;23.33;21.08;;;;;;;6.65;100.00;98875.84;2089560;28;20226;-73
2021/11/08 00:35:15;;;;;;;23.85;21.73;;;;;;;6.68;100.00;98876.09;2089544;28;20226;-73
2021/11/08 00:36:15;;;;;;;24.40;21.98;;;;;;;6.68;100.00;98876.09;2089478;28;20219;-73
2021/11/08 00:37:17;;;;;;;22.73;20.53;;;;;;;6.67;100.00;98879.81;2089325;28;21074;-73
2021/11/08 00:38:18;;;;;;;22.60;20.48;;;;;;;6.68;100.00;98876.09;2089543;28;20218;-73
2021/11/08 00:39:20;;;;;;;23.80;21.30;;;;;;;6.66;100.00;98872.94;2089388;28;20234;-73
2021/11/08 00:40:23;;;;;;;22.60;20.40;;;;;;;6.69;100.00;98866.28;2088525;28;20222;-73
2021/11/08 00:41:26;;;;;;;22.75;20.75;;;;;;;6.65;100.00;98871.34;2080327;28;20254;-73
2021/11/08 00:42:29;;;;;;;23.17;20.60;;;;;;;6.64;100.00;98875.06;2088637;28;20372;-73
2021/11/08 00:43:31;;;;;;;23.10;21.00;;;;;;;6.63;100.00;98870.84;2088504;28;20237;-73
2021/11/08 00:44:32;;;;;;;22.80;20.70;;;;;;;6.61;100.00;98880.13;2088378;28;20233;-73
2021/11/08 00:45:34;;;;;;;22.30;20.10;;;;;;;6.60;100.00;98876.66;2089383;28;20615;-73
2021/11/08 00:46:37;;;;;;;22.00;19.92;;;;;;;6.57;100.00;98874.56;2089367;28;20249;-73
2021/11/08 00:47:39;;;;;;;21.88;19.77;;;;;;;6.57;100.00;98879.09;2088105;28;20313;-73
2021/11/08 00:48:42;;;;;;;22.30;20.17;;;;;;;6.60;100.00;98884.63;2088642;28;20227;-72
2021/11/08 00:49:44;;;;;;;22.20;19.95;;;;;;;6.59;100.00;98885.69;2089403;28;20229;-73
2021/11/08 00:50:46;;;;;;;23.00;20.70;;;;;;;6.58;100.00;98885.97;2089368;28;20605;-72
2021/11/08 00:51:48;;;;;;;21.60;19.73;;;;;;;6.55;100.00;98884.66;2088539;28;20222;-73
2021/11/08 00:52:49;;;;;;;23.13;20.80;;;;;;;6.54;100.00;98890.25;2088710;28;20227;-74
2021/11/08 00:53:51;;;;;;;22.20;20.10;;;;;;;6.55;100.00;98897.91;2089439;28;20314;-74
2021/11/08 00:54:53;;;;;;;22.50;20.40;;;;;;;6.56;100.00;98896.84;2089056;28;20226;-73
2021/11/08 00:55:56;;;;;;;22.20;20.20;;;;;;;6.57;100.00;98895.78;2088480;28;20249;-73
2021/11/08 00:56:59;;;;;;;22.35;20.33;;;;;;;6.58;100.00;98899.22;2080706;28;20265;-73
2021/11/08 00:58:02;;;;;;;21.25;19.35;;;;;;;6.57;100.00;98906.38;2088687;28;20249;-73
2021/11/08 00:59:03;;;;;;;22.50;20.33;;;;;;;6.58;100.00;98907.16;2089283;28;20280;-73
2021/11/08 01:00:06;;;;;;;22.60;20.40;;;;;;;6.58;100.00;98915.91;2088490;28;20234;-73
2021/11/08 01:01:09;;;;;;;21.90;19.92;;;;;;;6.55;100.00;98903.22;2080155;28;20760;-74
2021/11/08 01:02:15;;;;;;;22.73;20.42;;;;;;;6.56;100.00;98912.75;2080489;28;20235;-73
2021/11/08 01:03:19;;;;;;;21.80;19.80;;;;;;;6.56;100.00;98918.03;2088704;28;20705;-73
2021/11/08 01:04:23;;;;;;;21.42;19.52;;;;;;;6.58;100.00;98907.97;2089272;28;20229;-74
2021/11/08 01:05:24;;;;;;;22.48;20.38;;;;;;;6.56;100.00;98915.41;2088799;28;20215;-73
2021/11/08 01:06:26;;;;;;;22.20;20.30;;;;;;;6.55;100.00;98913.03;2088328;28;20313;-73
2021/11/08 01:07:27;;;;;;;21.85;19.70;;;;;;;6.52;100.00;98914.38;2080264;28;20230;-73
2021/11/08 01:08:31;;;;;;;21.92;20.02;;;;;;;6.51;100.00;98918.06;2088508;28;20321;-74
2021/11/08 01:09:32;;;;;;;22.58;20.52;;;;;;;6.48;100.00;98915.97;2089437;28;20271;-74
2021/11/08 01:10:34;;;;;;;22.45;20.45;;;;;;;6.47;100.00;98909.09;2088986;28;20280;-73
2021/11/08 01:11:35;;;;;;;21.85;19.85;;;;;;;6.51;100.00;98910.09;2088441;28;20309;-73
2021/11/08 01:12:37;;;;;;;22.90;20.60;;;;;;;6.46;100.00;98902.19;2088496;28;20219;-73
2021/11/08 01:13:39;;;;;;;21.83;19.90;;;;;;;6.47;100.00;98915.16;2087804;28;20222;-73
2021/11/08 01:14:41;;;;;;;22.80;20.77;;;;;;;6.47;100.00;98919.69;2088547;28;20815;-73
2021/11/08 01:15:43;;;;;;;21.85;19.75;;;;;;;6.46;100.00;98918.09;2089080;28;20237;-73
2021/11/08 01:16:46;;;;;;;21.17;19.23;;;;;;;6.44;100.00;98921.03;2089258;28;20301;-74
2021/11/08 01:17:50;;;;;;;23.13;20.65;;;;;;;6.43;100.00;98921.31;2089201;28;20696;-74
2021/11/08 01:18:54;;;;;;;22.95;20.63;;;;;;;6.47;100.00;98923.13;2089259;28;20697;-73
2021/11/08 01:19:55;;;;;;;20.83;19.02;;;;;;;6.47;100.00;98923.13;2088783;28;20581;-73
2021/11/08 01:20:57;;;;;;;21.73;19.83;;;;;;;6.46;100.00;98931.34;2089156;28;20333;-73
2021/11/08 01:22:05;;;;;;;21.50;19.63;;;;;;;6.43;100.00;98924.75;2089141;28;20238;-73
2021/11/08 01:23:09;;;;;;;21.80;19.85;;;;;;;6.46;100.00;98923.41;2088477;28;20268;-73
2021/11/08 01:24:11;;;;;;;22.70;20.50;;;;;;;6.45;100.00;98932.41;2088183;28;20753;-73
2021/11/08 01:25:12;;;;;;;22.20;20.17;;;;;;;6.41;100.00;98926.06;2089106;28;20260;-73
2021/11/08 01:26:14;;;;;;;21.90;19.80;;;;;;;6.38;100.00;98924.75;2088358;28;20301;-73
2021/11/08 01:27:16;;;;;;;22.15;20.20;;;;;;;6.37;100.00;98928.47;2088164;28;20292;-73
2021/11/08 01:28:17;;;;;;;23.20;21.10;;;;;;;6.37;100.00;98928.47;2089035;28;20218;-73
2021/11/08 01:29:21;;;;;;;21.67;19.63;;;;;;;6.36;100.00;98924.25;2089214;28;20242;-73
2021/11/08 01:30:24;;;;;;;22.52;20.38;;;;;;;6.34;100.00;98928.19;2087902;28;20223;-73
2021/11/08 01:31:26;;;;;;;20.73;18.92;;;;;;;6.33;100.00;98929.28;2088554;28;20222;-73
2021/11/08 01:32:27;;;;;;;22.30;20.20;;;;;;;6.33;100.00;98931.91;2089065;28;20283;-73
2021/11/08 01:33:30;;;;;;;21.10;19.30;;;;;;;6.37;100.00;98931.13;2088467;28;20226;-73
2021/11/08 01:34:32;;;;;;;21.75;19.92;;;;;;;6.35;100.00;98932.47;2088379;28;20250;-73
2021/11/08 01:35:39;;;;;;;21.67;19.60;;;;;;;6.34;100.00;98938.81;2089132;28;20235;-73
2021/11/08 01:36:50;;;;;;;22.27;20.20;;;;;;;6.33;100.00;98931.91;2088754;28;20620;-73
2021/11/08 01:38:00;;;;;;;22.38;20.30;;;;;;;6.29;100.00;98930.88;2088495;28;20267;-73
2021/11/08 01:39:12;;;;;;;22.23;20.15;;;;;;;6.30;100.00;98930.63;2081028;28;20721;-73
2021/11/08 01:40:13;;;;;;;21.95;20.02;;;;;;;6.35;100.00;98945.72;2080888;28;20306;-73
2021/11/08 01:41:18;;;;;;;22.52;20.45;;;;;;;6.33;100.00;98942.53;2080350;28;20223;-73
2021/11/08 01:42:20;;;;;;;22.85;20.65;;;;;;;6.32;100.00;98944.38;2088210;28;20226;-74
2021/11/08 01:43:21;;;;;;;22.90;20.67;;;;;;;6.33;100.00;98937.22;2089063;28;20222;-74
2021/11/08 01:44:26;;;;;;;21.80;19.80;;;;;;;6.38;100.00;98945.16;2087846;28;20229;-73
2021/11/08 01:45:28;;;;;;;21.73;19.92;;;;;;;6.42;100.00;98943.53;2088466;28;20279;-74
2021/11/08 01:46:30;;;;;;;22.52;20.35;;;;;;;6.38;100.00;98945.16;2088860;28;20617;-73
2021/11/08 01:47:31;;;;;;;22.30;20.30;;;;;;;6.35;100.00;98945.72;2088980;28;20677;-73
2021/11/08 01:48:35;;;;;;;22.75;20.75;;;;;;;6.36;100.00;98950.75;2088916;28;20704;-73
2021/11/08 01:49:38;;;;;;;22.58;20.45;;;;;;;6.39;100.00;98944.88;2087979;28;20223;-73
2021/11/08 01:50:40;;;;;;;22.58;20.50;;;;;;;6.37;100.00;98944.38;2087793;28;20344;-73
2021/11/08 01:51:43;;;;;;;22.73;20.48;;;;;;;6.35;100.00;98951.00;2088909;28;20688;-73
2021/11/08 01:52:44;;;;;;;21.98;20.05;;;;;;;6.35;100.00;98956.31;2088932;28;20252;-73
2021/11/08 01:53:48;;;;;;;21.60;19.57;;;;;;;6.32;100.00;98951.53;2088982;28;20697;-73
2021/11/08 01:54:48;;;;;;;22.67;20.58;;;;;;;6.31;100.00;98949.94;2088813;28;20257;-73
2021/11/08 01:55:51;;;;;;;21.67;19.70;;;;;;;6.30;100.00;98958.97;2088128;28;20215;-73
2021/11/08 01:56:54;;;;;;;22.40;20.17;;;;;;;6.31;100.00;98953.38;2087902;28;20370;-73
2021/11/08 01:57:57;;;;;;;22.08;20.02;;;;;;;6.32;100.00;98951.53;2088067;28;20580;-73
2021/11/08 01:59:00;;;;;;;22.75;20.40;;;;;;;6.29;100.00;98957.38;2088361;28;20268;-73
2021/11/08 02:00:01;;;;;;;22.40;20.30;;;;;;;6.27;100.00;98955.00;2088822;28;20223;-73
2021/11/08 02:01:04;;;;;;;22.20;20.20;;;;;;;6.26;100.00;98957.94;2088493;28;20754;-74
2021/11/08 02:02:05;;;;;;;22.55;20.42;;;;;;;6.26;100.00;98957.94;2088268;28;20745;-74
2021/11/08 02:03:07;;;;;;;22.00;20.10;;;;;;;6.25;100.00;98957.13;2088857;28;20578;-73
2021/11/08 02:04:11;;;;;;;22.20;20.17;;;;;;;6.23;100.00;98962.69;2087635;28;20344;-73
2021/11/08 02:05:14;;;;;;;22.48;20.40;;;;;;;6.24;100.00;98958.97;2080162;28;20686;-73
2021/11/08 02:06:14;;;;;;;22.17;20.27;;;;;;;6.22;100.00;98955.00;2088014;28;20245;-73
2021/11/08 02:07:16;;;;;;;22.20;20.30;;;;;;;6.24;100.00;98960.81;2088881;28;20297;-73
2021/11/08 02:08:18;;;;;;;22.08;19.85;;;;;;;6.23;100.00;98952.09;2088855;28;20226;-73
2021/11/08 02:09:20;;;;;;;21.80;19.98;;;;;;;6.20;100.00;98955.28;2088064;28;20719;-73
2021/11/08 02:10:21;;;;;;;21.50;19.60;;;;;;;6.18;100.00;98956.63;2088043;28;20218;-73
2021/11/08 02:11:23;;;;;;;21.83;19.73;;;;;;;6.18;100.00;98956.63;2088024;28;20222;-73
2021/11/08 02:12:27;;;;;;;21.33;19.38;;;;;;;6.15;100.00;98952.63;2087942;28;20616;-73
2021/11/08 02:13:30;;;;;;;22.05;20.05;;;;;;;6.13;100.00;98956.63;2088070;28;20573;-72
2021/11/08 02:14:31;;;;;;;20.77;19.08;;;;;;;6.09;100.00;98961.69;2087974;28;20223;-73
2021/11/08 02:15:35;;;;;;;21.47;19.63;;;;;;;6.08;100.00;98962.75;2079792;28;20741;-73
2021/11/08 02:16:37;;;;;;;21.75;19.77;;;;;;;6.07;100.00;98971.72;2087982;28;20245;-72
2021/11/08 02:17:41;;;;;;;21.92;20.02;;;;;;;6.00;100.00;98971.25;2087537;28;20249;-72
2021/11/08 02:18:44;;;;;;;22.13;20.23;;;;;;;6.00;100.00;98973.88;2088015;28;20228;-73
2021/11/08 02:19:47;;;;;;;20.85;19.23;;;;;;;6.00;100.00;98971.25;2088868;28;20226;-73
2021/11/08 02:20:51;;;;;;;21.42;19.55;;;;;;;5.97;100.00;98970.97;2088821;28;20625;-73
2021/11/08 02:21:52;;;;;;;22.15;20.20;;;;;;;5.96;100.00;98970.16;2088443;28;20222;-72
2021/11/08 02:22:56;;;;;;;21.20;19.50;;;;;;;5.95;100.00;98968.59;2088827;28;20230;-73
2021/11/08 02:23:58;;;;;;;22.15;20.00;;;;;;;5.91;100.00;98972.84;2088689;28;20230;-73
2021/11/08 02:25:00;;;;;;;22.42;20.33;;;;;;;5.92;100.00;98977.06;2088733;28;20226;-73
2021/11/08 02:26:05;;;;;;;20.92;19.20;;;;;;;5.91;100.00;98970.19;2087898;28;20226;-73
2021/11/08 02:27:08;;;;;;;21.63;19.73;;;;;;;5.88;100.00;98975.97;2080226;28;20223;-73
2021/11/08 02:28:11;;;;;;;21.77;19.98;;;;;;;5.88;100.00;98981.28;2087398;28;20762;-73
2021/11/08 02:29:14;;;;;;;22.27;20.30;;;;;;;5.86;100.00;98980.75;2087781;28;20389;-73
2021/11/08 02:30:16;;;;;;;21.77;19.75;;;;;;;5.86;100.00;98984.19;2079943;28;20234;-73
2021/11/08 02:31:22;;;;;;;22.15;20.05;;;;;;;5.86;100.00;98975.47;2087984;28;20222;-72
2021/11/08 02:32:23;;;;;;;22.17;20.10;;;;;;;5.83;100.00;98976.00;2088323;28;20285;-73
2021/11/08 02:33:28;;;;;;;21.60;19.70;;;;;;;5.82;100.00;98975.22;2088621;28;20226;-73
2021/11/08 02:34:29;;;;;;;22.02;19.80;;;;;;;5.83;100.00;98976.00;2087821;28;20226;-73
2021/11/08 02:35:31;;;;;;;22.43;20.20;;;;;;;5.83;100.00;98965.41;2088030;28;20223;-73
2021/11/08 02:36:37;;;;;;;22.65;20.65;;;;;;;5.81;100.00;98976.25;2088586;28;20619;-73
2021/11/08 02:37:39;;;;;;;22.65;20.55;;;;;;;5.81;100.00;98970.16;2088331;28;20230;-73
2021/11/08 02:38:44;;;;;;;21.88;19.83;;;;;;;5.80;100.00;98968.56;2088623;28;20223;-73
2021/11/08 02:39:48;;;;;;;22.20;20.23;;;;;;;5.81;100.00;98973.59;2088623;28;20229;-73
2021/11/08 02:40:52;;;;;;;22.38;20.48;;;;;;;5.80;100.00;98964.06;2087937;28;20336;-73
2021/11/08 02:41:54;;;;;;;22.10;20.00;;;;;;;5.77;100.00;98971.75;2087583;28;20234;-73
2021/11/08 02:42:58;;;;;;;22.15;20.20;;;;;;;5.77;100.00;98977.06;2088532;28;20276;-73
2021/11/08 02:44:02;;;;;;;22.70;20.60;;;;;;;5.74;100.00;98977.59;2088660;28;20677;-72
2021/11/08 02:45:07;;;;;;;22.38;20.30;;;;;;;5.73;100.00;98973.34;2088654;28;20301;-73
2021/11/08 02:46:13;;;;;;;22.23;20.13;;;;;;;5.74;100.00;98978.38;2088252;28;20227;-73
2021/11/08 02:47:14;;;;;;;22.67;20.60;;;;;;;5.73;100.00;98983.91;2087515;28;20639;-73
2021/11/08 02:48:16;;;;;;;22.33;20.33;;;;;;;5.72;100.00;98977.03;2079950;28;20270;-73
2021/11/08 02:49:17;;;;;;;22.88;20.95;;;;;;;5.71;100.00;98980.75;2087985;28;20219;-73
2021/11/08 02:50:20;;;;;;;23.37;21.37;;;;;;;5.67;100.00;98981.28;2088518;28;20258;-73
2021/11/08 02:51:23;;;;;;;21.98;20.08;;;;;;;5.65;100.00;98986.06;2087742;28;20223;-73
2021/11/08 02:52:27;;;;;;;23.10;20.98;;;;;;;5.64;100.00;98986.31;2087570;28;20253;-73
2021/11/08 02:53:30;;;;;;;22.73;20.73;;;;;;;5.61;100.00;98981.56;2088749;28;20243;-73
2021/11/08 02:54:35;;;;;;;23.30;21.20;;;;;;;5.59;100.00;98984.47;2088695;28;20716;-73
2021/11/08 02:55:36;;;;;;;22.90;20.80;;;;;;;5.56;100.00;98976.25;2088540;28;20222;-73
2021/11/08 02:56:38;;;;;;;23.52;21.30;;;;;;;5.55;100.00;98986.03;2088183;28;20749;-73
2021/11/08 02:57:40;;;;;;;23.50;21.35;;;;;;;5.55;100.00;98982.59;2088556;28;20669;-73
2021/11/08 02:58:44;;;;;;;22.83;20.80;;;;;;;5.50;100.00;98988.72;2087761;28;20595;-73
2021/11/08 02:59:47;;;;;;;23.02;20.95;;;;;;;5.53;100.00;98993.47;2087874;28;20222;-73
2021/11/08 03:00:53;;;;;;;23.52;21.30;;;;;;;5.51;100.00;98992.94;2088581;28;20257;-73
2021/11/08 03:01:55;;;;;;;23.17;21.08;;;;;;;5.53;100.00;98993.47;2088195;28;20581;-72
2021/11/08 03:02:57;;;;;;;23.25;21.08;;;;;;;5.48;100.00;98996.13;2088529;28;20276;-73
2021/11/08 03:04:00;;;;;;;23.55;21.25;;;;;;;5.51;100.00;98987.66;2087608;28;20241;-73
2021/11/08 03:05:02;;;;;;;22.92;20.73;;;;;;;5.51;100.00;98995.59;2079973;28;20745;-72
2021/11/08 03:06:10;;;;;;;23.55;21.30;;;;;;;5.46;100.00;98992.91;2079776;28;20224;-73
2021/11/08 03:07:13;;;;;;;22.83;20.80;;;;;;;5.47;100.00;99001.66;2087622;28;20215;-73
2021/11/08 03:08:15;;;;;;;24.02;21.50;;;;;;;5.47;100.00;98999.81;2088550;28;20222;-73
2021/11/08 03:09:22;;;;;;;22.80;20.80;;;;;;;5.47;100.00;98999.00;2088542;28;20227;-73
2021/11/08 03:10:26;;;;;;;23.08;20.80;;;;;;;5.47;100.00;98993.72;2087186;28;20250;-73
2021/11/08 03:11:28;;;;;;;22.73;20.63;;;;;;;5.47;100.00;99005.09;2087854;28;20679;-72
2021/11/08 03:12:34;;;;;;;22.67;20.45;;;;;;;5.48;100.00;99004.06;2088514;28;20261;-72
2021/11/08 03:13:38;;;;;;;24.45;22.15;;;;;;;5.47;100.00;99004.28;2087766;28;20298;-73
2021/11/08 03:14:44;;;;;;;23.38;21.17;;;;;;;5.47;100.00;99005.09;2087443;28;20292;-73
2021/11/08 03:15:55;;;;;;;23.67;21.55;;;;;;;5.46;100.00;99011.44;2088478;28;20231;-73
2021/11/08 03:16:58;;;;;;;23.73;21.52;;;;;;;5.45;100.00;99003.78;2088014;28;20222;-72
2021/11/08 03:18:04;;;;;;;23.10;21.10;;;;;;;5.44;100.00;99007.47;2088003;28;20227;-72
2021/11/08 03:19:15;;;;;;;22.67;20.58;;;;;;;5.47;100.00;99009.59;2087786;28;20276;-73
2021/11/08 03:20:18;;;;;;;24.08;21.83;;;;;;;5.46;100.00;99008.78;2088155;28;20249;-73
2021/11/08 03:21:21;;;;;;;23.88;21.67;;;;;;;5.46;100.00;99008.78;2088545;28;20227;-73
2021/11/08 03:22:30;;;;;;;24.90;22.65;;;;;;;5.47;100.00;99005.09;2088170;28;20309;-73
2021/11/08 03:23:33;;;;;;;23.52;21.35;;;;;;;5.54;100.00;99008.28;2089992;28;20309;-73
2021/11/08 03:24:39;;;;;;;24.33;22.02;;;;;;;5.56;100.00;99003.53;2090182;28;20241;-73
2021/11/08 03:25:48;;;;;;;23.38;21.38;;;;;;;5.60;100.00;99009.09;2088887;28;20596;-73
2021/11/08 03:26:51;;;;;;;22.83;20.83;;;;;;;5.61;100.00;99008.81;2089311;28;20226;-73
2021/11/08 03:27:54;;;;;;;23.80;21.40;;;;;;;5.60;100.00;99004.59;2089743;28;20306;-72
2021/11/08 03:28:58;;;;;;;23.45;21.20;;;;;;;5.61;100.00;99006.16;2089199;28;20219;-73
2021/11/08 03:30:00;;;;;;;24.48;22.23;;;;;;;5.63;100.00;99004.03;2081362;28;20231;-72
2021/11/08 03:31:01;;;;;;;24.35;21.77;;;;;;;5.64;100.00;99010.13;2089227;28;20269;-72
2021/11/08 03:32:05;;;;;;;23.75;21.50;;;;;;;5.66;100.00;99011.47;2089234;28;20223;-73
2021/11/08 03:33:07;;;;;;;22.95;20.90;;;;;;;5.66;100.00;99011.47;2089351;28;20230;-73
2021/11/08 03:34:10;;;;;;;23.27;21.02;;;;;;;5.67;100.00;99007.75;2088803;28;20310;-73
2021/11/08 03:35:14;;;;;;;23.55;21.33;;;;;;;5.67;100.00;99005.13;2081063;28;20692;-73
2021/11/08 03:36:21;;;;;;;24.20;21.80;;;;;;;5.69;100.00;99004.84;2089320;28;20280;-73
2021/11/08 03:37:23;;;;;;;23.90;21.42;;;;;;;5.67;100.00;99005.13;2089090;28;20219;-73
2021/11/08 03:38:24;;;;;;;22.92;20.83;;;;;;;5.68;100.00;99004.06;2090049;28;20226;-73
2021/11/08 03:39:26;;;;;;;23.63;21.33;;;;;;;5.70;100.00;99011.72;2089377;28;20647;-73
2021/11/08 03:40:31;;;;;;;23.17;21.15;;;;;;;5.75;100.00;99005.66;2089114;28;20260;-73
2021/11/08 03:41:32;;;;;;;22.85;20.67;;;;;;;5.74;100.00;99010.16;2089902;28;20273;-73
2021/11/08 03:42:37;;;;;;;23.20;21.17;;;;;;;5.78;100.00;99005.09;2090041;28;20230;-73
2021/11/08 03:43:40;;;;;;;24.23;22.02;;;;;;;5.76;100.00;99001.94;2089621;28;20227;-73
2021/11/08 03:44:41;;;;;;;22.95;20.80;;;;;;;5.76;100.00;99007.25;2089977;28;20712;-73
2021/11/08 03:45:43;;;;;;;22.57;20.20;;;;;;;5.74;100.00;99002.22;2089798;28;20731;-72
2021/11/08 03:46:44;;;;;;;23.13;20.92;;;;;;;5.71;100.00;99004.56;2089879;28;20639;-73
2021/11/08 03:47:46;;;;;;;23.15;20.80;;;;;;;5.70;100.00;99008.28;2089401;28;20222;-73
2021/11/08 03:48:51;;;;;;;22.75;20.70;;;;;;;5.70;100.00;99009.09;2089147;28;20219;-73
2021/11/08 03:49:55;;;;;;;25.08;21.40;;;;;;;5.70;100.00;99008.28;2089584;28;20284;-73
2021/11/08 03:50:56;;;;;;;22.80;20.77;;;;;;;5.70;100.00;99010.94;2089851;28;20223;-73
2021/11/08 03:51:58;;;;;;;24.42;21.63;;;;;;;5.70;100.00;99005.63;2089054;28;20235;-73
2021/11/08 03:52:59;;;;;;;23.60;21.15;;;;;;;5.68;100.00;99009.34;2089117;28;20260;-73
2021/11/08 03:54:03;;;;;;;22.90;20.70;;;;;;;5.68;100.00;99001.41;2089310;28;20280;-72
2021/11/08 03:55:07;;;;;;;22.92;20.73;;;;;;;5.67;100.00;99007.75;2088940;28;20222;-73
2021/11/08 03:56:10;;;;;;;23.08;20.95;;;;;;;5.68;100.00;99006.69;2088820;28;20631;-73
2021/11/08 03:57:12;;;;;;;22.02;20.23;;;;;;;5.69;100.00;99007.50;2089829;28;20234;-73
2021/11/08 03:58:14;;;;;;;22.60;20.30;;;;;;;5.67;100.00;99009.63;2089203;28;20294;-73
2021/11/08 03:59:14;;;;;;;21.80;19.90;;;;;;;5.66;100.00;99008.81;2089170;28;20215;-73
2021/11/08 04:00:18;;;;;;;23.37;20.93;;;;;;;5.68;100.00;99006.69;2089850;28;20306;-72
2021/11/08 04:01:20;;;;;;;23.17;20.90;;;;;;;5.67;100.00;99005.13;2089828;28;20226;-72
2021/11/08 04:02:21;;;;;;;23.38;21.15;;;;;;;5.69;100.00;99007.50;2089874;28;20226;-73
2021/11/08 04:03:23;;;;;;;23.35;21.15;;;;;;;5.68;100.00;99012.00;2088617;28;20318;-73
2021/11/08 04:04:25;;;;;;;23.02;21.02;;;;;;;5.68;100.00;99017.28;2088921;28;20791;-73
2021/11/08 04:05:30;;;;;;;23.42;21.02;;;;;;;5.72;100.00;99017.53;2088964;28;20721;-73
2021/11/08 04:06:32;;;;;;;24.08;21.60;;;;;;;5.75;100.00;99014.38;2089007;28;20222;-73
2021/11/08 04:07:33;;;;;;;22.42;20.42;;;;;;;5.75;100.00;99011.75;2089760;28;20226;-73
2021/11/08 04:08:36;;;;;;;22.63;20.73;;;;;;;5.75;100.00;99017.03;2089848;28;20695;-73
2021/11/08 04:09:39;;;;;;;22.05;20.13;;;;;;;5.74;100.00;99014.66;2089463;28;20233;-72
2021/11/08 04:10:43;;;;;;;22.83;20.80;;;;;;;5.70;100.00;99013.56;2089719;28;20243;-72
2021/11/08 04:11:45;;;;;;;22.08;20.25;;;;;;;5.73;100.00;99019.13;2089826;28;20545;-72
2021/11/08 04:12:49;;;;;;;21.70;19.70;;;;;;;5.82;100.00;99020.22;2089762;28;20229;-72
2021/11/08 04:13:51;;;;;;;22.95;20.85;;;;;;;5.80;100.00;99016.22;2089742;28;20428;-72
2021/11/08 04:14:52;;;;;;;21.63;19.70;;;;;;;5.81;100.00;99018.59;2089444;28;20230;-72
2021/11/08 04:15:54;;;;;;;21.97;20.13;;;;;;;5.77;100.00;99020.19;2089159;28;20280;-72
2021/11/08 04:16:55;;;;;;;22.20;20.40;;;;;;;5.77;100.00;99014.13;2088918;28;20222;-72
2021/11/08 04:17:57;;;;;;;23.03;20.73;;;;;;;5.76;100.00;99017.81;2089600;28;20222;-72
2021/11/08 04:18:59;;;;;;;21.75;19.95;;;;;;;5.73;100.00;99013.84;2089638;28;20227;-72
2021/11/08 04:20:00;;;;;;;22.33;20.17;;;;;;;5.74;100.00;99012.00;2089698;28;20249;-72
2021/11/08 04:21:03;;;;;;;22.83;20.73;;;;;;;5.74;100.00;99012.00;2089708;28;20238;-72
2021/11/08 04:22:04;;;;;;;23.35;20.88;;;;;;;5.74;100.00;99023.38;2088715;28;20226;-72
2021/11/08 04:23:06;;;;;;;23.05;20.63;;;;;;;5.74;100.00;99019.94;2080788;28;20230;-72
2021/11/08 04:24:09;;;;;;;22.45;20.25;;;;;;;5.78;100.00;99013.06;2080327;28;20226;-73
2021/11/08 04:25:12;;;;;;;22.25;20.35;;;;;;;5.74;100.00;99004.06;2088583;28;20233;-72
2021/11/08 04:26:18;;;;;;;22.73;20.50;;;;;;;5.70;100.00;99009.09;2088658;28;20301;-72
2021/11/08 04:27:20;;;;;;;21.90;20.00;;;;;;;5.70;100.00;99013.56;2088858;28;20681;-72
2021/11/08 04:28:23;;;;;;;21.60;19.85;;;;;;;5.72;100.00;99014.09;2089685;28;20313;-72
2021/11/08 04:29:24;;;;;;;22.35;20.40;;;;;;;5.69;100.00;99007.50;2089299;28;20320;-72
2021/11/08 04:30:27;;;;;;;22.77;20.67;;;;;;;5.65;100.00;99012.53;2089569;28;20249;-72
2021/11/08 04:31:34;;;;;;;23.38;21.17;;;;;;;5.62;100.00;99006.97;2088512;28;20218;-73
2021/11/08 04:32:47;;;;;;;22.02;19.90;;;;;;;5.65;100.00;99011.75;2081226;28;20302;-72
2021/11/08 04:33:51;;;;;;;22.67;20.50;;;;;;;5.67;100.00;99013.06;2088373;28;20306;-72
2021/11/08 04:35:01;;;;;;;22.55;20.40;;;;;;;5.71;100.00;99015.97;2089280;28;20230;-72
2021/11/08 04:36:27;;;;;;;22.20;20.30;;;;;;;5.74;100.00;99007.50;2089513;28;20229;-72
2021/11/08 04:38:58;;;;;;;22.50;20.40;;;;;;;5.69;100.00;99012.78;2088874;28;20731;-72
2021/11/08 04:40:07;;;;;;;26.42;20.73;;;;;;;5.71;100.00;99020.47;2088359;28;20606;-72
2021/11/08 04:41:19;;;;;;;22.73;20.60;;;;;;;5.75;100.00;99016.25;2081044;28;20236;-72
2021/11/08 04:42:25;;;;;;;22.95;20.90;;;;;;;5.73;100.00;99016.47;2081697;28;20223;-72
2021/11/08 04:43:38;;;;;;;22.50;20.50;;;;;;;5.73;100.00;99013.84;2081053;28;20257;-73
2021/11/08 04:44:56;;;;;;;22.67;20.50;;;;;;;5.74;100.00;99006.72;2088610;28;20234;-73
2021/11/08 04:48:54;;;;;;;22.92;20.77;;;;;;;5.72;100.00;99012.25;2088753;28;20226;-73
2021/11/08 04:50:02;;;;;;;21.92;19.73;;;;;;;5.72;100.00;99017.53;2088203;28;20260;-73
2021/11/08 04:51:07;;;;;;;24.17;21.67;;;;;;;5.72;100.00;99022.03;2081419;28;20227;-72
2021/11/08 04:52:20;;;;;;;23.05;20.90;;;;;;;5.70;100.00;99013.56;2088381;28;20276;-73
2021/11/08 04:53:31;;;;;;;23.67;21.38;;;;;;;5.73;100.00;99023.63;2088496;28;20214;-72
2021/11/08 04:54:36;;;;;;;23.58;21.35;;;;;;;5.68;100.00;99012.00;2081486;28;20636;-73
2021/11/08 05:21:21;;;;;;;22.05;20.08;;;;;;;5.34;100.00;99047.94;2088167;28;20218;-72